Time;durP1;ratioP1;P1;durP2;ratioP2;P2;SDS_P1;SDS_P2;PMS_P1;PMS_P2;Temp;Humidity;BMP_temperature;BMP_pressure;BME280_temperature;BME280_humidity;BME280_pressure;Samples;Min_cycle;Max_cycle;Signal;HPM_P1;HPM_P2
2023/05/19 00:01:06;;;;;;;13.15;5.90;;;7.90;99.90;;;;;;5018446;28;20477;-71
2023/05/19 00:03:35;;;;;;;13.43;6.20;;;7.90;99.90;;;;;;5033670;28;20072;-71
2023/05/19 00:06:01;;;;;;;10.38;5.07;;;7.80;99.90;;;;;;5066205;28;20493;-73
2023/05/19 00:08:32;;;;;;;14.80;5.07;;;7.80;99.90;;;;;;5034723;28;20312;-73
2023/05/19 00:10:58;;;;;;;13.40;6.32;;;7.80;99.90;;;;;;5033048;28;20028;-73
2023/05/19 00:13:24;;;;;;;15.10;6.47;;;7.80;99.90;;;;;;5034458;28;20483;-73
2023/05/19 00:15:50;;;;;;;18.25;6.18;;;7.70;99.90;;;;;;5067076;28;20055;-73
2023/05/19 00:18:16;;;;;;;15.77;6.10;;;7.70;99.90;;;;;;5033819;28;20052;-72
2023/05/19 00:20:42;;;;;;;15.60;6.32;;;7.70;99.90;;;;;;5046417;28;20041;-71
2023/05/19 00:23:07;;;;;;;15.85;6.15;;;7.70;99.90;;;;;;5033409;28;20041;-72
2023/05/19 00:25:33;;;;;;;12.52;5.38;;;7.60;99.90;;;;;;5033577;28;20048;-71
2023/05/19 00:28:01;;;;;;;23.35;6.93;;;7.70;99.90;;;;;;5033651;28;20028;-71
2023/05/19 00:30:27;;;;;;;18.27;6.53;;;7.70;99.90;;;;;;5035009;28;20120;-70
2023/05/19 00:32:53;;;;;;;14.57;6.18;;;7.60;99.90;;;;;;5033590;28;20041;-71
2023/05/19 00:35:19;;;;;;;15.52;6.10;;;7.60;99.90;;;;;;5032355;28;20059;-71
2023/05/19 00:37:45;;;;;;;15.20;6.18;;;7.60;99.90;;;;;;5033855;28;20044;-71
2023/05/19 00:40:11;;;;;;;17.67;6.20;;;7.60;99.90;;;;;;5034382;28;20048;-71
2023/05/19 00:42:37;;;;;;;17.90;7.38;;;7.60;99.90;;;;;;5033848;28;20112;-71
2023/05/19 00:45:04;;;;;;;15.73;7.50;;;7.60;99.90;;;;;;5063749;28;20087;-71
2023/05/19 00:47:30;;;;;;;17.55;6.40;;;7.60;99.90;;;;;;5029948;28;20048;-72
2023/05/19 00:49:55;;;;;;;17.55;7.03;;;7.60;99.90;;;;;;5014036;28;20034;-71
2023/05/19 00:52:21;;;;;;;18.48;7.63;;;7.60;99.90;;;;;;5030270;28;20049;-71
2023/05/19 00:54:48;;;;;;;22.02;7.63;;;7.60;99.90;;;;;;5030858;28;20045;-71
2023/05/19 00:57:14;;;;;;;18.48;7.68;;;7.60;99.90;;;;;;5029196;28;20088;-71
2023/05/19 00:59:40;;;;;;;13.02;7.05;;;7.60;99.90;;;;;;5013495;28;20478;-71
2023/05/19 01:02:06;;;;;;;21.00;7.22;;;7.60;99.90;;;;;;5029777;28;20042;-77
2023/05/19 01:04:33;;;;;;;17.88;8.05;;;7.60;99.90;;;;;;5027914;28;20159;-77
2023/05/19 01:06:59;;;;;;;19.80;8.27;;;7.60;99.90;;;;;;5059950;28;20037;-78
2023/05/19 01:09:25;;;;;;;19.35;7.95;;;7.60;99.90;;;;;;5029424;28;20409;-77
2023/05/19 01:11:52;;;;;;;18.58;7.20;;;7.50;99.90;;;;;;5027621;28;20260;-77
2023/05/19 01:14:19;;;;;;;17.45;7.78;;;7.50;99.90;;;;;;5029368;28;20091;-76
2023/05/19 01:16:52;;;;;;;19.20;7.50;;;7.60;99.90;;;;;;5025274;28;20175;-77
2023/05/19 01:19:45;;;;;;;20.73;7.68;;;7.50;99.90;;;;;;5029837;28;20049;-77
2023/05/19 01:22:42;;;;;;;17.42;7.32;;;7.50;99.90;;;;;;5014706;28;20501;-77
2023/05/19 01:25:37;;;;;;;18.67;7.07;;;7.50;99.90;;;;;;5042331;28;20064;-77
2023/05/19 01:28:06;;;;;;;20.80;7.10;;;7.50;99.90;;;;;;5061914;28;20052;-77
2023/05/19 01:30:41;;;;;;;19.63;8.18;;;7.50;99.90;;;;;;5029711;28;20041;-78
2023/05/19 01:33:10;;;;;;;18.08;7.20;;;7.40;99.90;;;;;;5027355;28;20040;-77
2023/05/19 01:35:37;;;;;;;17.10;7.22;;;7.50;99.90;;;;;;5028446;28;20052;-77
2023/05/19 01:38:06;;;;;;;17.45;7.25;;;7.50;99.90;;;;;;5029436;28;20079;-77
2023/05/19 01:40:33;;;;;;;22.35;8.18;;;7.40;99.90;;;;;;5029051;28;20045;-77
2023/05/19 01:43:00;;;;;;;21.25;7.68;;;7.50;99.90;;;;;;5045046;28;20052;-76
2023/05/19 01:45:31;;;;;;;15.63;6.38;;;7.40;99.90;;;;;;5028021;28;20057;-77
2023/05/19 01:48:00;;;;;;;17.02;7.80;;;7.40;99.90;;;;;;5028899;28;20124;-78
2023/05/19 01:50:26;;;;;;;18.58;6.90;;;7.40;99.90;;;;;;5021772;28;20044;-77
2023/05/19 01:52:52;;;;;;;18.40;7.22;;;7.40;99.90;;;;;;5029413;28;20120;-78
2023/05/19 01:55:18;;;;;;;20.63;7.45;;;7.40;99.90;;;;;;5027192;28;20045;-77
2023/05/19 01:57:44;;;;;;;20.15;7.75;;;7.40;99.90;;;;;;5028835;28;20272;-78
2023/05/19 02:00:23;;;;;;;17.42;8.60;;;7.40;99.90;;;;;;5028873;28;20041;-77
2023/05/19 02:03:25;;;;;;;15.02;7.03;;;7.40;99.90;;;;;;5027003;28;20485;-77
2023/05/19 02:05:51;;;;;;;18.45;7.47;;;7.50;99.90;;;;;;5028966;28;20038;-77
2023/05/19 02:08:31;;;;;;;19.27;7.45;;;7.40;99.90;;;;;;5028897;28;20048;-76
2023/05/19 02:11:13;;;;;;;17.77;6.93;;;7.40;99.90;;;;;;5059797;28;20041;-77
2023/05/19 02:13:43;;;;;;;17.05;7.07;;;7.50;99.90;;;;;;5026335;28;20034;-77
2023/05/19 02:16:12;;;;;;;14.18;7.00;;;7.40;99.90;;;;;;5028366;28;20124;-77
2023/05/19 02:18:39;;;;;;;17.20;7.20;;;7.40;99.90;;;;;;5028235;28;20417;-78
2023/05/19 02:21:05;;;;;;;17.20;7.22;;;7.50;99.90;;;;;;5044865;28;20412;-77
2023/05/19 02:23:31;;;;;;;19.98;6.47;;;7.50;99.90;;;;;;5011976;28;20036;-78
2023/05/19 02:25:57;;;;;;;17.17;6.68;;;7.50;99.90;;;;;;5027819;28;20037;-78
2023/05/19 02:28:26;;;;;;;22.88;7.00;;;7.50;99.90;;;;;;5027154;28;20033;-78
2023/05/19 02:30:52;;;;;;;22.13;7.28;;;7.50;99.90;;;;;;5009759;28;20140;-79
2023/05/19 02:33:18;;;;;;;14.85;6.47;;;7.50;99.90;;;;;;5027662;28;20045;-78
2023/05/19 02:35:44;;;;;;;19.98;6.03;;;7.50;99.90;;;;;;5028468;28;20033;-78
2023/05/19 02:38:10;;;;;;;15.68;6.75;;;7.50;99.90;;;;;;5011881;28;20043;-77
2023/05/19 02:40:35;;;;;;;23.30;7.20;;;7.50;99.90;;;;;;5025407;28;20049;-77
2023/05/19 02:43:02;;;;;;;18.08;6.30;;;7.50;99.90;;;;;;5028151;28;20132;-79
2023/05/19 02:45:29;;;;;;;15.48;6.47;;;7.50;99.90;;;;;;5026522;28;20053;-79
2023/05/19 02:47:55;;;;;;;24.50;7.30;;;7.50;99.90;;;;;;5010142;28;20368;-78
2023/05/19 02:50:21;;;;;;;18.25;6.85;;;7.50;99.90;;;;;;5027247;28;20042;-78
2023/05/19 02:52:47;;;;;;;18.08;6.28;;;7.50;99.90;;;;;;5044272;28;20038;-80
2023/05/19 02:55:15;;;;;;;18.98;6.63;;;7.40;99.90;;;;;;5025978;28;20037;-79
2023/05/19 02:57:42;;;;;;;14.30;6.20;;;7.40;99.90;;;;;;5028595;28;20095;-79
2023/05/19 03:00:08;;;;;;;19.23;7.38;;;7.40;99.90;;;;;;5027723;28;20076;-79
2023/05/19 03:02:34;;;;;;;13.43;6.45;;;7.40;99.90;;;;;;5027649;28;20045;-79
2023/05/19 03:05:02;;;;;;;16.70;6.95;;;7.30;99.90;;;;;;5028155;28;20369;-79
2023/05/19 03:07:27;;;;;;;16.13;6.75;;;7.40;99.90;;;;;;5043947;28;20033;-78
2023/05/19 03:09:53;;;;;;;17.25;6.20;;;7.40;99.90;;;;;;5025635;28;20096;-79
2023/05/19 03:12:19;;;;;;;18.73;6.50;;;7.40;99.90;;;;;;5031686;28;20037;-71
2023/05/19 03:14:46;;;;;;;15.93;6.13;;;7.40;99.90;;;;;;5026757;28;20072;-71
2023/05/19 03:17:12;;;;;;;15.48;6.75;;;7.40;99.90;;;;;;5026261;28;20152;-71
2023/05/19 03:19:37;;;;;;;18.80;7.07;;;7.40;99.90;;;;;;5026440;28;20533;-71
2023/05/19 03:22:03;;;;;;;18.85;6.60;;;7.30;99.90;;;;;;5027914;28;20061;-71
2023/05/19 03:24:29;;;;;;;15.15;6.25;;;7.30;99.90;;;;;;5008233;28;20061;-71
2023/05/19 03:26:55;;;;;;;14.80;6.22;;;7.30;99.90;;;;;;5027575;28;20075;-71
2023/05/19 03:29:21;;;;;;;18.95;7.00;;;7.30;99.90;;;;;;5028179;28;20458;-71
2023/05/19 03:31:46;;;;;;;21.15;7.22;;;7.20;99.90;;;;;;5027980;28;20048;-71
2023/05/19 03:34:12;;;;;;;18.00;7.18;;;7.20;99.90;;;;;;5025219;28;20124;-71
2023/05/19 03:36:38;;;;;;;17.40;7.25;;;7.20;99.90;;;;;;5025081;28;20307;-71
2023/05/19 03:39:05;;;;;;;16.63;7.38;;;7.20;99.90;;;;;;5026444;28;20046;-71
2023/05/19 03:41:31;;;;;;;18.15;7.20;;;7.20;99.90;;;;;;5027677;28;20102;-71
2023/05/19 03:43:57;;;;;;;22.10;7.25;;;7.10;99.90;;;;;;5029375;28;20049;-71
2023/05/19 03:46:23;;;;;;;20.88;7.38;;;7.10;99.90;;;;;;5030696;28;20124;-71
2023/05/19 03:48:48;;;;;;;18.38;7.97;;;7.10;99.90;;;;;;5046798;28;20032;-71
2023/05/19 03:51:14;;;;;;;26.67;7.95;;;7.20;99.90;;;;;;5028109;28;20372;-71
2023/05/19 03:53:40;;;;;;;21.65;8.10;;;7.20;99.90;;;;;;5047808;28;20057;-71
2023/05/19 03:56:06;;;;;;;17.73;7.57;;;7.20;99.90;;;;;;5028180;28;20040;-72
2023/05/19 03:58:32;;;;;;;17.00;8.05;;;7.20;99.90;;;;;;5030594;28;20048;-72
2023/05/19 04:00:58;;;;;;;17.10;8.95;;;7.20;99.90;;;;;;5029751;28;20519;-72
2023/05/19 04:03:27;;;;;;;22.20;8.40;;;7.20;99.90;;;;;;5029996;28;20033;-71
2023/05/19 04:05:53;;;;;;;25.85;7.82;;;7.30;99.90;;;;;;5015925;28;20041;-72
2023/05/19 04:08:18;;;;;;;19.88;7.60;;;7.30;99.90;;;;;;5030168;28;20052;-71
2023/05/19 04:10:44;;;;;;;18.13;8.55;;;7.30;99.90;;;;;;5028495;28;20044;-71
2023/05/19 04:13:10;;;;;;;25.10;9.05;;;7.30;99.90;;;;;;5030114;28;20063;-72
2023/05/19 04:15:36;;;;;;;22.10;8.30;;;7.40;99.90;;;;;;5030811;28;20048;-72
2023/05/19 04:18:01;;;;;;;17.52;8.25;;;7.40;99.90;;;;;;5029804;28;20045;-72
2023/05/19 04:20:27;;;;;;;21.23;9.18;;;7.40;99.90;;;;;;5032700;28;20048;-72
2023/05/19 04:22:53;;;;;;;19.67;9.30;;;7.40;99.90;;;;;;5034194;28;20033;-71
2023/05/19 04:25:19;;;;;;;19.88;8.55;;;7.50;99.90;;;;;;5032035;28;20187;-71
2023/05/19 04:27:45;;;;;;;21.77;9.82;;;7.50;99.90;;;;;;5034253;28;20033;-71
2023/05/19 04:30:11;;;;;;;24.90;9.13;;;7.50;99.90;;;;;;5034447;28;20315;-71
2023/05/19 04:32:38;;;;;;;21.27;9.05;;;7.60;99.90;;;;;;5033485;28;20041;-71
2023/05/19 04:35:04;;;;;;;19.85;8.50;;;7.70;99.90;;;;;;5019215;28;20036;-72
2023/05/19 04:37:30;;;;;;;19.30;9.52;;;7.70;99.90;;;;;;5067293;28;20048;-72
2023/05/19 04:39:56;;;;;;;19.30;8.85;;;7.80;99.90;;;;;;5034253;28;20135;-72
2023/05/19 04:42:24;;;;;;;18.92;9.40;;;7.90;99.90;;;;;;5034382;28;20511;-71
2023/05/19 04:44:50;;;;;;;15.73;8.57;;;8.00;99.90;;;;;;5017539;28;20496;-71
2023/05/19 04:47:16;;;;;;;18.85;9.20;;;8.10;99.90;;;;;;5033585;28;20059;-72
2023/05/19 04:49:42;;;;;;;20.08;8.57;;;8.20;99.90;;;;;;5033440;28;20033;-72
2023/05/19 04:52:10;;;;;;;20.42;9.48;;;8.30;99.90;;;;;;5034085;28;20516;-72
2023/05/19 04:54:36;;;;;;;19.40;8.25;;;8.40;99.90;;;;;;5033376;28;20041;-73
2023/05/19 04:57:03;;;;;;;17.20;8.35;;;8.50;99.90;;;;;;5030342;28;20080;-72
2023/05/19 04:59:29;;;;;;;15.95;8.10;;;8.60;99.90;;;;;;5030927;28;20045;-71
2023/05/19 05:01:55;;;;;;;14.73;7.57;;;8.80;99.90;;;;;;5030587;28;20103;-72
2023/05/19 05:04:22;;;;;;;13.40;7.57;;;9.20;99.90;;;;;;5063596;28;20084;-72
2023/05/19 05:06:48;;;;;;;14.75;7.45;;;9.50;99.90;;;;;;5033748;28;20037;-72
2023/05/19 05:09:15;;;;;;;13.07;6.55;;;9.70;99.90;;;;;;5067100;28;20366;-72
2023/05/19 05:11:41;;;;;;;15.50;7.15;;;9.80;99.90;;;;;;5032222;28;20045;-72
2023/05/19 05:14:07;;;;;;;12.05;6.72;;;9.80;99.90;;;;;;5032236;28;20135;-72
2023/05/19 05:16:33;;;;;;;14.90;7.97;;;9.80;99.90;;;;;;5033187;28;20040;-71
2023/05/19 05:19:00;;;;;;;12.90;6.93;;;9.70;99.90;;;;;;5033567;28;20485;-73
2023/05/19 05:21:27;;;;;;;11.52;6.70;;;9.60;99.90;;;;;;5048763;28;20064;-72
2023/05/19 05:23:54;;;;;;;12.45;6.43;;;9.60;99.90;;;;;;5017040;28;20041;-72
2023/05/19 05:26:22;;;;;;;15.10;7.40;;;9.50;99.90;;;;;;5030840;28;20040;-72
2023/05/19 05:28:48;;;;;;;15.75;7.30;;;9.50;99.90;;;;;;5033306;28;20048;-73
2023/05/19 05:31:14;;;;;;;12.13;6.30;;;9.50;99.90;;;;;;5030887;28;20496;-72
2023/05/19 05:33:40;;;;;;;12.13;6.75;;;9.50;99.90;;;;;;5016783;28;20045;-73
2023/05/19 05:36:06;;;;;;;14.80;6.85;;;9.50;99.90;;;;;;5064797;28;20196;-73
2023/05/19 05:38:32;;;;;;;11.88;7.13;;;9.60;99.90;;;;;;5034374;28;20048;-73
2023/05/19 05:40:58;;;;;;;11.90;6.75;;;9.60;99.90;;;;;;5063921;28;20037;-73
2023/05/19 05:43:24;;;;;;;9.90;5.57;;;9.70;99.90;;;;;;5033889;28;20072;-73
2023/05/19 05:45:49;;;;;;;15.32;6.32;;;9.90;99.90;;;;;;5033402;28;20049;-73
2023/05/19 05:48:15;;;;;;;13.27;6.75;;;10.00;99.90;;;;;;5033513;28;20059;-73
2023/05/19 05:50:44;;;;;;;14.25;6.72;;;10.10;99.90;;;;;;5032617;28;20036;-73
2023/05/19 05:53:16;;;;;;;12.40;6.50;;;10.20;99.90;;;;;;5033350;28;20587;-74
2023/05/19 05:55:42;;;;;;;13.18;6.35;;;10.30;99.90;;;;;;5029125;28;20041;-74
2023/05/19 05:58:10;;;;;;;13.43;6.13;;;10.40;99.90;;;;;;5034103;28;20098;-75
2023/05/19 06:00:36;;;;;;;13.57;5.35;;;10.50;99.90;;;;;;5032397;28;20040;-74
2023/05/19 06:03:03;;;;;;;14.07;5.72;;;10.60;99.90;;;;;;5032945;28;20045;-74
2023/05/19 06:05:29;;;;;;;11.95;5.57;;;10.60;99.90;;;;;;5032377;28;20135;-74
2023/05/19 06:07:55;;;;;;;10.60;5.03;;;10.70;99.90;;;;;;5033491;28;20037;-74
2023/05/19 06:10:21;;;;;;;11.32;5.57;;;10.80;99.90;;;;;;5064386;28;20382;-74
2023/05/19 06:12:46;;;;;;;11.90;5.40;;;10.90;99.90;;;;;;5016616;28;20039;-74
2023/05/19 06:15:13;;;;;;;9.95;4.72;;;11.00;99.90;;;;;;5030318;28;20044;-74
2023/05/19 06:17:38;;;;;;;12.15;5.10;;;11.10;99.90;;;;;;5032535;28;20048;-74
2023/05/19 06:20:05;;;;;;;10.90;4.85;;;11.20;99.90;;;;;;5029048;28;20485;-81
2023/05/19 06:22:31;;;;;;;10.48;4.80;;;11.30;99.90;;;;;;5032442;28;20044;-83
2023/05/19 06:24:57;;;;;;;8.48;4.50;;;11.50;99.90;;;;;;5012950;28;20045;-81
2023/05/19 06:27:22;;;;;;;11.10;5.03;;;11.50;99.90;;;;;;5009318;28;20056;-78
2023/05/19 06:29:48;;;;;;;7.28;4.32;;;11.70;99.90;;;;;;5042216;28;20045;-82
2023/05/19 06:32:14;;;;;;;7.55;4.32;;;11.80;99.90;;;;;;5030169;28;20500;-82
2023/05/19 06:34:40;;;;;;;12.20;4.60;;;11.90;99.90;;;;;;5032560;28;20063;-83
2023/05/19 06:37:06;;;;;;;9.45;4.10;;;12.00;99.90;;;;;;5030568;28;20041;-81
2023/05/19 06:39:32;;;;;;;12.50;4.55;;;12.20;99.90;;;;;;5050643;28;20051;-82
2023/05/19 06:41:57;;;;;;;11.10;4.30;;;12.30;99.90;;;;;;5029833;28;20041;-83
2023/05/19 06:44:23;;;;;;;9.02;3.78;;;12.40;99.90;;;;;;5033323;28;20071;-83
2023/05/19 06:46:49;;;;;;;11.90;3.60;;;12.60;99.90;;;;;;5060302;28;20142;-83
2023/05/19 06:49:14;;;;;;;8.50;3.67;;;12.60;99.90;;;;;;5033832;28;20520;-82
2023/05/19 06:51:40;;;;;;;6.20;3.20;;;12.70;99.90;;;;;;5045976;28;20044;-84
2023/05/19 06:54:06;;;;;;;9.70;3.97;;;12.80;99.90;;;;;;5017342;28;20053;-83
2023/05/19 06:56:32;;;;;;;14.30;3.63;;;12.90;99.90;;;;;;5014574;28;20455;-84
2023/05/19 06:58:58;;;;;;;9.82;3.63;;;13.10;99.90;;;;;;5032924;28;20029;-83
2023/05/19 07:01:25;;;;;;;10.60;3.70;;;13.10;99.90;;;;;;5029699;28;20086;-81
2023/05/19 07:03:51;;;;;;;11.45;4.00;;;13.10;99.90;;;;;;5032244;28;20041;-83
2023/05/19 07:06:16;;;;;;;6.68;3.03;;;13.20;99.90;;;;;;5029746;28;20177;-83
2023/05/19 07:08:42;;;;;;;6.72;2.80;;;13.30;99.90;;;;;;5032898;28;20377;-83
2023/05/19 07:11:08;;;;;;;10.20;3.55;;;13.40;99.90;;;;;;5033326;28;20091;-84
2023/05/19 07:13:33;;;;;;;8.18;3.47;;;13.50;99.90;;;;;;5063304;28;20033;-85
2023/05/19 07:15:59;;;;;;;8.95;3.80;;;13.70;99.90;;;;;;5031067;28;20472;-84
2023/05/19 07:18:25;;;;;;;7.38;3.17;;;13.80;99.90;;;;;;5015693;28;20045;-85
2023/05/19 07:20:52;;;;;;;6.40;2.50;;;13.90;99.90;;;;;;5012330;28;20044;-83
2023/05/19 07:23:18;;;;;;;9.65;2.47;;;14.00;99.90;;;;;;5032629;28;20497;-82
2023/05/19 07:25:43;;;;;;;7.97;2.03;;;14.10;99.90;;;;;;5031939;28;20071;-83
2023/05/19 07:28:09;;;;;;;11.20;2.65;;;14.30;99.90;;;;;;5015527;28;20028;-83
2023/05/19 07:30:35;;;;;;;10.07;2.85;;;14.40;99.90;;;;;;5047721;28;20632;-84
2023/05/19 07:33:01;;;;;;;8.07;2.30;;;14.50;99.90;;;;;;5030052;28;20466;-85
2023/05/19 07:35:26;;;;;;;10.20;2.47;;;14.60;99.90;;;;;;5031589;28;20119;-80
2023/05/19 07:37:52;;;;;;;9.40;5.00;;;14.70;99.90;;;;;;5062212;28;20206;-83
2023/05/19 07:40:18;;;;;;;9.43;2.22;;;14.70;99.90;;;;;;5031195;28;20102;-85
2023/05/19 07:42:43;;;;;;;6.50;2.70;;;14.80;99.90;;;;;;5028477;28;20045;-85
2023/05/19 07:45:10;;;;;;;9.40;2.55;;;14.90;99.90;;;;;;5060908;28;20085;-85
2023/05/19 07:47:36;;;;;;;8.52;2.50;;;15.10;99.90;;;;;;5058757;28;20046;-85
2023/05/19 07:50:03;;;;;;;6.25;1.98;;;15.30;99.90;;;;;;5027726;28;20256;-84
2023/05/19 07:52:28;;;;;;;7.53;2.20;;;15.50;99.90;;;;;;5024882;28;20513;-81
2023/05/19 07:54:54;;;;;;;7.90;2.28;;;15.60;99.90;;;;;;5029515;28;20400;-84
2023/05/19 07:57:20;;;;;;;7.75;2.40;;;15.60;99.90;;;;;;5029530;28;20041;-83
2023/05/19 07:59:46;;;;;;;7.35;2.17;;;15.60;99.90;;;;;;5030445;28;20044;-82
2023/05/19 08:02:14;;;;;;;9.02;2.30;;;15.70;99.90;;;;;;5028304;28;20053;-84
2023/05/19 08:04:40;;;;;;;8.85;2.33;;;15.80;99.90;;;;;;5030234;28;20033;-83
2023/05/19 08:07:06;;;;;;;8.05;2.38;;;15.90;99.90;;;;;;5029814;28;20176;-81
2023/05/19 08:09:31;;;;;;;4.82;1.73;;;16.10;99.90;;;;;;5030299;28;20044;-85
2023/05/19 08:11:57;;;;;;;7.43;2.30;;;16.30;99.90;;;;;;5033030;28;20413;-82
2023/05/19 08:14:23;;;;;;;6.25;1.70;;;16.50;99.90;;;;;;5027662;28;20044;-80
2023/05/19 08:16:49;;;;;;;8.02;2.22;;;16.70;99.80;;;;;;5013811;28;20072;-82
2023/05/19 08:19:14;;;;;;;8.70;2.35;;;17.00;99.70;;;;;;5032006;28;20033;-83
2023/05/19 08:21:43;;;;;;;5.22;1.67;;;17.30;94.80;;;;;;5043736;28;20462;-82
2023/05/19 08:24:10;;;;;;;6.57;1.92;;;17.70;95.10;;;;;;5030654;28;20103;-74
2023/05/19 08:26:35;;;;;;;5.85;1.63;;;18.20;94.50;;;;;;5044610;28;20123;-82
2023/05/19 08:29:01;;;;;;;7.38;2.28;;;18.40;90.70;;;;;;5031904;28;20498;-78
2023/05/19 08:31:27;;;;;;;7.90;2.30;;;18.40;89.10;;;;;;5028761;28;20064;-77
2023/05/19 08:33:52;;;;;;;6.78;1.90;;;18.50;90.30;;;;;;5030508;28;20542;-77
2023/05/19 08:36:18;;;;;;;4.95;1.88;;;18.70;88.40;;;;;;5031354;28;20049;-79
2023/05/19 08:38:44;;;;;;;4.82;1.98;;;18.90;88.00;;;;;;5029573;28;20073;-78
2023/05/19 08:41:10;;;;;;;5.47;1.95;;;19.20;86.20;;;;;;5029802;28;20048;-77
2023/05/19 08:43:36;;;;;;;8.68;2.42;;;19.40;83.70;;;;;;5030697;28;20503;-84
2023/05/19 08:46:03;;;;;;;5.55;1.95;;;19.40;79.80;;;;;;5031081;28;20421;-83
2023/05/19 08:48:30;;;;;;;6.05;1.88;;;19.30;76.00;;;;;;5031498;28;20038;-83
2023/05/19 08:51:07;;;;;;;5.28;1.70;;;19.10;75.20;;;;;;5030993;28;20400;-84
2023/05/19 08:53:38;;;;;;;7.38;2.22;;;19.20;75.20;;;;;;5031111;28;20041;-84
2023/05/19 08:56:31;;;;;;;6.60;2.13;;;19.20;77.10;;;;;;5045846;28;20050;-83
2023/05/19 08:58:59;;;;;;;6.93;2.13;;;19.40;74.60;;;;;;5026861;28;20584;-84
2023/05/19 09:01:27;;;;;;;9.07;2.88;;;19.60;74.80;;;;;;5030374;28;20143;-83
2023/05/19 09:03:53;;;;;;;5.45;2.10;;;19.70;73.90;;;;;;5064220;28;20115;-83
2023/05/19 09:06:20;;;;;;;7.03;2.35;;;19.60;70.60;;;;;;5031411;28;20155;-84
2023/05/19 09:08:46;;;;;;;6.63;2.92;;;19.40;69.00;;;;;;5047083;28;20983;-83
2023/05/19 09:11:13;;;;;;;7.40;1.95;;;19.20;70.90;;;;;;5028967;28;20037;-83
2023/05/19 09:13:39;;;;;;;6.22;2.00;;;19.30;70.00;;;;;;5029463;28;20076;-83
2023/05/19 09:16:06;;;;;;;6.47;2.90;;;19.40;68.30;;;;;;5028751;28;20116;-82
2023/05/19 09:18:32;;;;;;;6.50;2.10;;;19.20;65.20;;;;;;5031219;28;20516;-82
2023/05/19 09:21:01;;;;;;;5.40;2.35;;;19.10;68.10;;;;;;5048011;28;20048;-82
2023/05/19 09:23:29;;;;;;;7.45;2.20;;;19.30;67.70;;;;;;5006892;28;20528;-83
2023/05/19 09:25:55;;;;;;;8.20;2.20;;;19.40;66.80;;;;;;5030690;28;20057;-83
2023/05/19 09:28:32;;;;;;;6.20;1.83;;;19.40;66.90;;;;;;5030364;28;20466;-83
2023/05/19 09:31:08;;;;;;;6.93;1.77;;;19.30;66.50;;;;;;5014766;28;20502;-83
2023/05/19 09:33:39;;;;;;;4.50;2.00;;;19.20;64.70;;;;;;5029058;28;20078;-82
2023/05/19 09:36:07;;;;;;;5.43;1.60;;;19.40;65.40;;;;;;5032993;28;20092;-82
2023/05/19 09:38:35;;;;;;;5.13;1.65;;;19.80;66.50;;;;;;5032908;28;20052;-81
2023/05/19 09:41:00;;;;;;;5.90;1.52;;;20.30;64.90;;;;;;5029862;28;20056;-83
2023/05/19 09:43:32;;;;;;;4.60;1.50;;;20.40;62.20;;;;;;5032435;28;20041;-82
2023/05/19 09:46:10;;;;;;;6.03;2.00;;;20.70;60.90;;;;;;5066299;28;20227;-82
2023/05/19 09:48:36;;;;;;;4.28;1.48;;;20.80;61.20;;;;;;5039460;28;20037;-82
2023/05/19 09:51:05;;;;;;;6.18;1.55;;;21.10;63.50;;;;;;5045714;28;20037;-82
2023/05/19 09:53:31;;;;;;;8.38;1.80;;;21.50;61.80;;;;;;5038767;28;20042;-81
2023/05/19 09:55:57;;;;;;;7.95;1.63;;;21.50;59.40;;;;;;5041651;28;20072;-82
2023/05/19 09:58:25;;;;;;;7.38;1.85;;;21.50;59.00;;;;;;5072194;28;20045;-81
2023/05/19 10:00:53;;;;;;;4.50;1.70;;;21.20;54.50;;;;;;5045875;28;20041;-80
2023/05/19 10:03:21;;;;;;;6.43;1.80;;;20.90;55.50;;;;;;5042533;28;20056;-81
2023/05/19 10:05:48;;;;;;;4.97;1.40;;;20.70;57.30;;;;;;5024434;28;20105;-81
2023/05/19 10:08:16;;;;;;;5.10;1.73;;;20.70;56.60;;;;;;5042281;28;20118;-76
2023/05/19 10:10:45;;;;;;;4.40;1.58;;;20.60;56.90;;;;;;5034960;28;20157;-74
2023/05/19 10:13:11;;;;;;;6.22;2.10;;;20.60;56.70;;;;;;5057843;28;20045;-71
2023/05/19 10:15:39;;;;;;;6.72;1.95;;;20.50;56.00;;;;;;5027189;28;20037;-71
2023/05/19 10:18:07;;;;;;;6.75;1.88;;;20.60;55.60;;;;;;5026937;28;20049;-70
2023/05/19 10:20:33;;;;;;;6.63;1.90;;;20.60;56.20;;;;;;5029703;28;20081;-72
2023/05/19 10:23:01;;;;;;;5.03;1.77;;;20.70;54.30;;;;;;5028767;28;20041;-72
2023/05/19 10:25:28;;;;;;;5.43;1.83;;;20.50;54.10;;;;;;5030817;28;20041;-72
2023/05/19 10:28:02;;;;;;;7.30;1.70;;;20.60;56.70;;;;;;5027147;28;20041;-72
2023/05/19 10:30:32;;;;;;;5.78;1.77;;;20.80;54.40;;;;;;5030513;28;20529;-72
2023/05/19 10:33:00;;;;;;;6.47;1.80;;;20.70;55.10;;;;;;5028226;28;20041;-72
2023/05/19 10:35:53;;;;;;;4.97;1.60;;;20.80;55.10;;;;;;5035323;28;20045;-77
2023/05/19 10:38:43;;;;;;;7.15;1.95;;;20.80;56.10;;;;;;5000682;28;20049;-76
2023/05/19 10:41:23;;;;;;;4.88;1.58;;;21.00;54.60;;;;;;5034387;28;20497;-75
2023/05/19 10:43:54;;;;;;;6.00;1.50;;;21.30;54.20;;;;;;5035078;28;20519;-77
2023/05/19 10:46:27;;;;;;;6.85;1.80;;;21.40;54.60;;;;;;5030625;28;20120;-74
2023/05/19 10:48:54;;;;;;;5.23;1.50;;;21.70;53.70;;;;;;5062059;28;20121;-77
2023/05/19 10:51:20;;;;;;;4.43;1.67;;;21.90;54.10;;;;;;5011331;28;20041;-75
2023/05/19 10:53:45;;;;;;;6.20;2.00;;;21.90;53.10;;;;;;5029752;28;20037;-76
2023/05/19 10:56:28;;;;;;;5.07;1.40;;;22.10;53.00;;;;;;5030175;28;20095;-78
2023/05/19 10:58:54;;;;;;;6.10;1.80;;;22.30;52.50;;;;;;5059112;28;20120;-78
2023/05/19 11:01:23;;;;;;;5.10;1.48;;;22.10;52.30;;;;;;5033423;28;20089;-80
2023/05/19 11:03:55;;;;;;;6.50;1.60;;;22.00;50.40;;;;;;5055903;28;20065;-80
2023/05/19 11:06:21;;;;;;;6.60;1.85;;;22.10;50.90;;;;;;5064607;28;20033;-80
2023/05/19 11:09:11;;;;;;;5.50;1.85;;;22.10;53.00;;;;;;5050228;28;20025;-80
2023/05/19 11:11:47;;;;;;;4.57;1.60;;;22.40;51.80;;;;;;5042555;28;20073;-80
2023/05/19 11:14:16;;;;;;;6.75;2.83;;;22.40;50.90;;;;;;5074800;28;20556;-80
2023/05/19 11:16:49;;;;;;;4.28;1.48;;;22.30;51.10;;;;;;5038421;28;20145;-80
2023/05/19 11:19:27;;;;;;;4.57;1.70;;;22.20;51.50;;;;;;5071879;28;20053;-80
2023/05/19 11:21:54;;;;;;;4.25;1.40;;;22.40;49.30;;;;;;5037843;28;20105;-80
2023/05/19 11:24:51;;;;;;;5.32;1.90;;;22.10;50.80;;;;;;5047439;28;20075;-80
2023/05/19 11:27:26;;;;;;;5.72;1.50;;;22.20;50.20;;;;;;5017320;28;20060;-79
2023/05/19 11:29:56;;;;;;;8.65;2.00;;;21.90;51.90;;;;;;5062931;28;20037;-70
2023/05/19 11:32:27;;;;;;;6.30;1.40;;;22.00;52.50;;;;;;5028646;28;20046;-77
2023/05/19 11:34:54;;;;;;;6.22;1.85;;;21.80;51.50;;;;;;5028202;28;20124;-82
2023/05/19 11:37:20;;;;;;;4.65;1.52;;;21.90;51.80;;;;;;5027910;28;20033;-83
2023/05/19 11:39:46;;;;;;;5.57;1.75;;;22.10;51.80;;;;;;5043427;28;20087;-82
2023/05/19 11:42:15;;;;;;;3.95;1.42;;;22.00;50.40;;;;;;5012011;28;20095;-83
2023/05/19 11:44:44;;;;;;;8.30;1.73;;;21.90;52.20;;;;;;5014483;28;20034;-84
2023/05/19 11:47:14;;;;;;;7.13;1.63;;;21.70;53.10;;;;;;5045623;28;20382;-81
2023/05/19 11:49:58;;;;;;;7.93;1.67;;;21.70;52.20;;;;;;5037196;28;20520;-81
2023/05/19 11:52:26;;;;;;;6.65;1.55;;;21.70;51.70;;;;;;5050316;28;20046;-77
2023/05/19 11:54:52;;;;;;;5.80;1.60;;;21.50;53.20;;;;;;5026515;28;20927;-76
2023/05/19 11:57:18;;;;;;;6.22;2.00;;;21.50;52.90;;;;;;5043728;28;20128;-76
2023/05/19 11:59:46;;;;;;;6.20;2.10;;;21.50;52.20;;;;;;5010809;28;20045;-71
2023/05/19 12:02:15;;;;;;;5.18;1.60;;;21.50;52.80;;;;;;5057991;28;20049;-71
2023/05/19 12:04:41;;;;;;;5.03;1.60;;;21.50;52.00;;;;;;5027061;28;20048;-71
2023/05/19 12:07:07;;;;;;;5.45;1.67;;;21.70;53.30;;;;;;5025226;28;20493;-71
2023/05/19 12:09:32;;;;;;;4.63;1.63;;;21.80;52.00;;;;;;5026233;28;20378;-76
2023/05/19 12:11:59;;;;;;;3.55;1.10;;;21.90;52.00;;;;;;5027804;28;20068;-77
2023/05/19 12:14:29;;;;;;;5.57;1.77;;;21.70;52.00;;;;;;5025909;28;20041;-78
2023/05/19 12:16:54;;;;;;;5.95;1.90;;;21.90;52.90;;;;;;5025433;28;20034;-78
2023/05/19 12:19:24;;;;;;;6.10;1.52;;;22.10;50.80;;;;;;5026808;28;20551;-78
2023/05/19 12:21:53;;;;;;;6.55;2.00;;;22.40;51.60;;;;;;5056613;28;20040;-77
2023/05/19 12:24:20;;;;;;;5.57;1.70;;;22.40;50.70;;;;;;5025222;28;20098;-75
2023/05/19 12:26:49;;;;;;;5.10;1.58;;;21.80;50.10;;;;;;5025683;28;20045;-74
2023/05/19 12:29:14;;;;;;;7.43;2.00;;;21.70;52.20;;;;;;5027529;28;20144;-75
2023/05/19 12:31:40;;;;;;;7.63;1.50;;;21.30;50.70;;;;;;5024329;28;20437;-74
2023/05/19 12:34:06;;;;;;;7.43;1.75;;;21.30;52.10;;;;;;5027505;28;20052;-72
2023/05/19 12:36:31;;;;;;;7.78;1.33;;;21.20;51.80;;;;;;5028685;28;20045;-74
2023/05/19 12:38:57;;;;;;;5.38;1.77;;;21.10;52.50;;;;;;5026039;28;20045;-73
2023/05/19 12:41:25;;;;;;;7.78;2.00;;;20.90;53.30;;;;;;5029454;28;21027;-74
2023/05/19 12:43:52;;;;;;;6.63;2.13;;;20.70;52.10;;;;;;5030745;28;20493;-74
2023/05/19 12:46:19;;;;;;;8.27;2.13;;;20.70;52.20;;;;;;5027333;28;20049;-74
2023/05/19 12:48:45;;;;;;;4.82;1.48;;;20.90;52.70;;;;;;5029937;28;20103;-72